Time;durP1;ratioP1;P1;durP2;ratioP2;P2;SDS_P1;SDS_P2;PMS_P1;PMS_P2;Temp;Humidity;BMP_temperature;BMP_pressure;BME280_temperature;BME280_humidity;BME280_pressure;Samples;Min_cycle;Max_cycle;Signal;HPM_P1;HPM_P2
2022/01/09 00:01:49;;;;;;;8.73;6.10;;;1.20;66.20;;;;;;4991775;28;20288;-80
2022/01/09 00:04:20;;;;;;;11.52;6.18;;;1.20;65.80;;;;;;4991403;28;20266;-81
2022/01/09 00:06:47;;;;;;;12.25;7.07;;;1.30;66.00;;;;;;4991108;28;20189;-81
2022/01/09 00:09:22;;;;;;;13.10;6.90;;;1.30;65.80;;;;;;4991812;28;20197;-81
2022/01/09 00:11:51;;;;;;;12.90;7.35;;;1.30;65.60;;;;;;4991134;28;20212;-80
2022/01/09 00:14:19;;;;;;;15.50;8.98;;;1.40;65.80;;;;;;4991745;28;20256;-81
2022/01/09 00:16:59;;;;;;;22.70;11.75;;;1.40;65.50;;;;;;4991201;28;20197;-82
2022/01/09 00:19:34;;;;;;;18.48;10.40;;;1.40;66.00;;;;;;4991323;28;20271;-83
2022/01/09 00:22:04;;;;;;;18.98;10.38;;;1.40;65.80;;;;;;4990741;28;20235;-82
2022/01/09 00:24:34;;;;;;;19.75;9.48;;;1.40;66.10;;;;;;4991552;28;20620;-82
2022/01/09 00:27:11;;;;;;;16.92;8.57;;;1.40;66.00;;;;;;4990991;28;20276;-81
2022/01/09 00:29:38;;;;;;;15.50;9.07;;;1.50;66.00;;;;;;4991597;28;20192;-81
2022/01/09 00:32:07;;;;;;;17.67;10.27;;;1.50;65.90;;;;;;4990858;28;20192;-81
2022/01/09 00:34:38;;;;;;;17.60;9.70;;;1.50;65.60;;;;;;4991058;28;20607;-80
2022/01/09 00:37:06;;;;;;;11.75;6.25;;;1.60;65.70;;;;;;4991349;28;20236;-83
2022/01/09 00:39:36;;;;;;;13.13;7.25;;;1.60;65.90;;;;;;4991301;28;20231;-80
2022/01/09 00:42:11;;;;;;;15.00;8.95;;;1.70;65.80;;;;;;4991169;28;20251;-82
2022/01/09 00:44:38;;;;;;;17.88;7.80;;;1.70;65.40;;;;;;4991281;28;20647;-82
2022/01/09 00:47:06;;;;;;;18.30;8.45;;;1.70;66.00;;;;;;4972302;28;20186;-82
2022/01/09 00:49:40;;;;;;;17.52;9.43;;;1.70;66.40;;;;;;4971995;28;20201;-82
2022/01/09 00:52:08;;;;;;;16.05;8.57;;;1.80;66.40;;;;;;4989975;28;20189;-81
2022/01/09 00:54:40;;;;;;;13.38;7.90;;;1.80;66.10;;;;;;4991346;28;20756;-82
2022/01/09 00:57:08;;;;;;;19.65;11.65;;;1.70;66.50;;;;;;4972010;28;20536;-81
2022/01/09 00:59:35;;;;;;;24.77;12.90;;;1.70;67.20;;;;;;4971562;28;20193;-82
2022/01/09 01:02:03;;;;;;;16.77;9.30;;;1.80;66.70;;;;;;4986857;28;20191;-81
2022/01/09 01:04:37;;;;;;;15.23;9.18;;;1.70;66.70;;;;;;4991815;28;20193;-81
2022/01/09 01:07:08;;;;;;;20.83;8.73;;;1.70;67.40;;;;;;4989676;28;20199;-80
2022/01/09 01:09:36;;;;;;;18.65;9.18;;;1.70;67.50;;;;;;4991526;28;20200;-81
2022/01/09 01:12:05;;;;;;;14.75;8.60;;;1.70;67.10;;;;;;4975428;28;20190;-81
2022/01/09 01:14:33;;;;;;;17.55;8.90;;;1.70;67.00;;;;;;4972246;28;20715;-81
2022/01/09 01:17:07;;;;;;;11.70;8.13;;;1.80;67.10;;;;;;4986271;28;20300;-80
2022/01/09 01:19:35;;;;;;;18.02;9.18;;;1.80;67.00;;;;;;4992103;28;20191;-80
2022/01/09 01:22:07;;;;;;;15.40;7.65;;;1.80;66.40;;;;;;4977961;28;20556;-81
2022/01/09 01:24:38;;;;;;;16.10;8.40;;;1.80;66.50;;;;;;4973079;28;20198;-81
2022/01/09 01:27:12;;;;;;;13.35;6.78;;;1.80;67.20;;;;;;4989730;28;20651;-81
2022/01/09 01:29:42;;;;;;;14.57;7.90;;;1.80;67.10;;;;;;4995929;28;20196;-82
2022/01/09 01:32:11;;;;;;;13.27;7.80;;;1.80;68.20;;;;;;4977804;28;20276;-80
2022/01/09 01:34:51;;;;;;;12.85;7.45;;;1.90;67.60;;;;;;4984253;28;20197;-81
2022/01/09 01:37:20;;;;;;;12.05;6.50;;;1.90;67.70;;;;;;4995940;28;20204;-81
2022/01/09 01:39:50;;;;;;;12.52;7.30;;;1.90;68.50;;;;;;4987100;28;20655;-81
2022/01/09 01:42:18;;;;;;;19.58;10.27;;;1.80;68.10;;;;;;4976799;28;20256;-81
2022/01/09 01:44:51;;;;;;;16.10;8.55;;;1.80;68.20;;;;;;4983845;28;20212;-81
2022/01/09 01:47:21;;;;;;;12.75;6.15;;;1.70;68.20;;;;;;4996375;28;20567;-81
2022/01/09 01:49:51;;;;;;;12.63;6.72;;;1.80;68.40;;;;;;4988271;28;20205;-81
2022/01/09 01:52:30;;;;;;;11.07;7.50;;;1.70;68.80;;;;;;4976375;28;20205;-81
2022/01/09 01:55:08;;;;;;;9.38;4.60;;;1.70;68.90;;;;;;4983855;28;20212;-81
2022/01/09 01:57:42;;;;;;;11.35;6.47;;;1.80;68.90;;;;;;4995819;28;20650;-81
2022/01/09 02:00:20;;;;;;;9.80;5.13;;;1.80;68.80;;;;;;4986255;28;20201;-81
2022/01/09 02:02:48;;;;;;;7.45;4.95;;;1.90;69.00;;;;;;4976377;28;20194;-81
2022/01/09 02:05:21;;;;;;;8.65;4.50;;;1.90;68.20;;;;;;4984789;28;20189;-81
2022/01/09 02:07:52;;;;;;;7.15;4.47;;;1.90;68.20;;;;;;4995705;28;20204;-81
2022/01/09 02:10:24;;;;;;;8.48;4.65;;;1.90;68.30;;;;;;4986255;28;20194;-81
2022/01/09 02:13:04;;;;;;;13.20;6.45;;;2.00;68.40;;;;;;4981645;28;20193;-81
2022/01/09 02:15:34;;;;;;;7.70;4.55;;;2.10;68.10;;;;;;4993549;28;20212;-81
2022/01/09 02:18:03;;;;;;;7.50;4.20;;;2.10;67.70;;;;;;4991944;28;20228;-79
2022/01/09 02:20:35;;;;;;;6.13;4.00;;;2.10;67.60;;;;;;4986095;28;20691;-80
2022/01/09 02:23:07;;;;;;;7.97;3.70;;;2.20;68.00;;;;;;4995336;28;20193;-81
2022/01/09 02:25:36;;;;;;;6.18;3.85;;;2.10;68.20;;;;;;4995182;28;20267;-81
2022/01/09 02:28:12;;;;;;;6.43;3.30;;;2.10;68.70;;;;;;4995176;28;20212;-82
2022/01/09 02:30:42;;;;;;;7.43;2.80;;;2.10;69.50;;;;;;4994786;28;20189;-81
2022/01/09 02:33:23;;;;;;;5.10;3.15;;;2.10;70.00;;;;;;4995067;28;20193;-81
2022/01/09 02:36:02;;;;;;;4.43;2.95;;;2.20;70.20;;;;;;4994254;28;20576;-81
2022/01/09 02:38:42;;;;;;;5.20;3.13;;;2.20;70.20;;;;;;4995253;28;20196;-80
2022/01/09 02:41:13;;;;;;;6.00;3.38;;;2.30;70.30;;;;;;4974542;28;20230;-82
2022/01/09 02:43:41;;;;;;;7.13;3.58;;;2.40;70.30;;;;;;4975595;28;20564;-80
2022/01/09 02:46:39;;;;;;;4.22;3.15;;;2.40;70.30;;;;;;4975640;28;20194;-82
2022/01/09 02:49:08;;;;;;;6.10;3.95;;;2.50;70.40;;;;;;4978534;28;20214;-81
2022/01/09 02:51:45;;;;;;;7.03;3.28;;;2.50;70.10;;;;;;4994767;28;20224;-81
2022/01/09 02:57:04;;;;;;;5.07;3.08;;;2.50;69.70;;;;;;4993860;28;20287;-81
2022/01/09 02:59:32;;;;;;;4.50;2.95;;;2.50;69.90;;;;;;4994524;28;20216;-81
2022/01/09 03:02:02;;;;;;;7.93;3.45;;;2.50;69.80;;;;;;4994779;28;20567;-80
2022/01/09 03:04:30;;;;;;;5.70;3.38;;;2.50;69.50;;;;;;4993762;28;20193;-81
2022/01/09 03:06:59;;;;;;;6.22;3.10;;;2.50;69.40;;;;;;4994515;28;20220;-81
2022/01/09 03:09:30;;;;;;;4.07;2.03;;;2.50;69.20;;;;;;4994307;28;20679;-81
2022/01/09 03:12:00;;;;;;;4.05;2.58;;;2.40;69.10;;;;;;4994302;28;20285;-80
2022/01/09 03:14:30;;;;;;;5.15;2.90;;;2.40;69.10;;;;;;4994622;28;20248;-81
2022/01/09 03:17:01;;;;;;;5.20;3.40;;;2.40;69.30;;;;;;4993889;28;20604;-80
2022/01/09 03:19:35;;;;;;;5.55;4.18;;;2.50;69.50;;;;;;4994383;28;20193;-81
2022/01/09 03:22:08;;;;;;;6.80;3.60;;;2.50;69.80;;;;;;4974288;28;20200;-81
2022/01/09 03:24:42;;;;;;;7.00;3.33;;;2.40;70.10;;;;;;4974843;28;20335;-81
2022/01/09 03:27:10;;;;;;;6.03;3.30;;;2.40;70.20;;;;;;4974213;28;20205;-81
2022/01/09 03:29:37;;;;;;;6.57;4.05;;;2.40;70.40;;;;;;4974643;28;20201;-81
2022/01/09 03:32:07;;;;;;;6.82;3.88;;;2.40;70.50;;;;;;4974116;28;20193;-81
2022/01/09 03:34:39;;;;;;;4.82;3.00;;;2.40;71.10;;;;;;4974615;28;20205;-81
2022/01/09 03:37:09;;;;;;;5.30;3.50;;;2.40;71.40;;;;;;4974005;28;20225;-81
2022/01/09 03:39:36;;;;;;;6.53;4.05;;;2.40;71.40;;;;;;4974480;28;20549;-80
2022/01/09 03:42:09;;;;;;;6.57;3.53;;;2.40;71.60;;;;;;4974043;28;20216;-81
2022/01/09 03:44:37;;;;;;;4.53;3.05;;;2.40;70.60;;;;;;4974221;28;20198;-80
2022/01/09 03:47:05;;;;;;;5.05;2.67;;;2.30;70.80;;;;;;4973897;28;20198;-80
2022/01/09 03:49:33;;;;;;;4.28;3.08;;;2.30;71.00;;;;;;4974369;28;20202;-82
2022/01/09 03:52:06;;;;;;;5.45;3.30;;;2.30;71.30;;;;;;4973440;28;20240;-81
2022/01/09 03:54:38;;;;;;;6.20;2.90;;;2.30;71.10;;;;;;4973853;28;20190;-81
2022/01/09 03:57:06;;;;;;;5.93;3.30;;;2.30;71.30;;;;;;4973503;28;20272;-81
2022/01/09 03:59:34;;;;;;;6.65;3.40;;;2.30;71.60;;;;;;4974207;28;20193;-81
2022/01/09 04:02:04;;;;;;;5.10;2.95;;;2.30;71.70;;;;;;4973999;28;20190;-80
2022/01/09 04:04:32;;;;;;;5.22;2.85;;;2.40;72.20;;;;;;4974446;28;20198;-81
2022/01/09 04:07:07;;;;;;;4.20;2.95;;;2.40;71.80;;;;;;4973695;28;20240;-82
2022/01/09 04:09:43;;;;;;;3.50;2.30;;;2.40;72.10;;;;;;4974362;28;20229;-82
2022/01/09 04:12:16;;;;;;;3.42;2.60;;;2.30;72.30;;;;;;4973985;28;20200;-82
2022/01/09 04:14:49;;;;;;;3.45;2.42;;;2.30;72.30;;;;;;4973894;28;20641;-82
2022/01/09 04:17:29;;;;;;;4.90;2.70;;;2.30;72.30;;;;;;4973538;28;20643;-82
2022/01/09 04:19:57;;;;;;;5.90;2.30;;;2.30;72.40;;;;;;4976857;28;20224;-82
2022/01/09 04:22:25;;;;;;;10.57;3.40;;;2.30;72.60;;;;;;4985968;28;20252;-82
2022/01/09 04:24:55;;;;;;;4.75;2.20;;;2.30;73.60;;;;;;4973875;28;20193;-81
2022/01/09 04:27:28;;;;;;;3.67;1.90;;;2.40;73.00;;;;;;4979814;28;20189;-83
2022/01/09 04:30:00;;;;;;;3.25;1.90;;;2.40;73.00;;;;;;4993164;28;20200;-82
2022/01/09 04:32:28;;;;;;;3.20;2.10;;;2.40;73.10;;;;;;4986433;28;20190;-83
2022/01/09 04:34:57;;;;;;;2.83;2.05;;;2.40;73.10;;;;;;4973714;28;20198;-82
2022/01/09 04:37:25;;;;;;;2.78;1.48;;;2.40;73.30;;;;;;4978879;28;20280;-82
2022/01/09 04:39:57;;;;;;;4.85;1.67;;;2.40;73.50;;;;;;4993281;28;20276;-81
2022/01/09 04:42:37;;;;;;;3.10;1.73;;;2.40;74.00;;;;;;4987943;28;20273;-81
2022/01/09 04:45:07;;;;;;;4.05;2.00;;;2.30;75.80;;;;;;4973742;28;20204;-82
2022/01/09 04:47:42;;;;;;;2.95;1.50;;;2.30;76.70;;;;;;4979155;28;20219;-83
2022/01/09 04:50:14;;;;;;;1.80;1.00;;;2.40;78.30;;;;;;4993126;28;20283;-80
2022/01/09 04:52:46;;;;;;;1.65;0.73;;;2.40;81.20;;;;;;4986534;28;20645;-83
2022/01/09 04:55:15;;;;;;;2.25;0.70;;;2.50;83.50;;;;;;4973695;28;20292;-82
2022/01/09 04:57:48;;;;;;;1.50;0.60;;;2.60;85.40;;;;;;4978971;28;20228;-82
2022/01/09 05:00:23;;;;;;;1.50;0.50;;;2.70;85.60;;;;;;4992841;28;20247;-83
2022/01/09 05:02:55;;;;;;;1.50;0.60;;;2.80;85.60;;;;;;4981379;28;20596;-82
2022/01/09 05:05:36;;;;;;;1.67;0.60;;;2.90;85.90;;;;;;4977739;28;20189;-78
2022/01/09 05:08:09;;;;;;;1.45;0.60;;;3.10;85.60;;;;;;4990568;28;20193;-82
2022/01/09 05:10:40;;;;;;;1.30;0.50;;;3.20;84.70;;;;;;4991799;28;20602;-82
2022/01/09 05:13:09;;;;;;;1.30;0.50;;;3.30;84.30;;;;;;4977513;28;20652;-82
2022/01/09 05:15:37;;;;;;;1.60;0.70;;;3.50;84.00;;;;;;4981149;28;20195;-82
2022/01/09 05:18:14;;;;;;;1.35;0.50;;;3.60;82.80;;;;;;4996786;28;20199;-82
2022/01/09 05:20:44;;;;;;;1.70;0.50;;;3.70;82.50;;;;;;4991881;28;20213;-82
2022/01/09 05:23:18;;;;;;;1.55;0.60;;;3.80;82.00;;;;;;4977254;28;20197;-81
2022/01/09 05:25:47;;;;;;;1.90;0.77;;;4.00;81.50;;;;;;4980962;28;20239;-81
2022/01/09 05:28:16;;;;;;;2.13;0.60;;;4.10;80.80;;;;;;4996646;28;20539;-82
2022/01/09 05:30:44;;;;;;;1.40;0.60;;;4.20;80.30;;;;;;4992794;28;20622;-82
2022/01/09 05:33:12;;;;;;;1.30;0.50;;;4.30;79.80;;;;;;4977033;28;20193;-82
2022/01/09 05:35:40;;;;;;;1.30;0.50;;;4.30;78.60;;;;;;4978676;28;21844;-82
2022/01/09 05:38:18;;;;;;;1.92;0.68;;;4.40;77.80;;;;;;4996382;28;20192;-82
2022/01/09 05:40:48;;;;;;;1.65;0.80;;;4.50;76.20;;;;;;4957417;29;20620;-82
2022/01/09 05:43:22;;;;;;;1.77;0.70;;;4.50;75.70;;;;;;4966878;28;20188;-83
2022/01/09 05:46:03;;;;;;;1.30;0.50;;;4.60;74.40;;;;;;4995935;28;20238;-83
2022/01/09 05:48:36;;;;;;;1.40;0.50;;;4.60;73.00;;;;;;4989666;28;20193;-82
2022/01/09 05:51:04;;;;;;;1.30;0.50;;;4.70;71.90;;;;;;4976636;28;20267;-82
2022/01/09 05:53:32;;;;;;;2.35;0.60;;;4.70;70.70;;;;;;4981815;28;20268;-79
2022/01/09 05:56:08;;;;;;;1.30;0.50;;;4.80;70.40;;;;;;4995975;28;20199;-82
2022/01/09 05:58:36;;;;;;;2.47;0.80;;;4.90;69.80;;;;;;4989926;28;20216;-82
2022/01/09 06:01:08;;;;;;;2.15;0.82;;;4.80;69.90;;;;;;4976523;28;20193;-83
2022/01/09 06:03:38;;;;;;;2.30;0.70;;;4.80;70.30;;;;;;4981228;28;20189;-83
2022/01/09 06:06:12;;;;;;;1.70;0.60;;;4.80;70.80;;;;;;4995587;28;20726;-81
2022/01/09 06:08:40;;;;;;;1.60;0.50;;;4.80;71.30;;;;;;4978207;28;20595;-82
2022/01/09 06:11:16;;;;;;;1.30;0.60;;;4.80;71.60;;;;;;4976320;28;20229;-83
2022/01/09 06:13:55;;;;;;;1.40;0.60;;;4.80;71.90;;;;;;4992736;28;20228;-83
2022/01/09 06:16:28;;;;;;;1.40;0.60;;;4.70;72.20;;;;;;4995278;28;20308;-81
2022/01/09 06:18:56;;;;;;;1.40;0.60;;;4.70;72.80;;;;;;4976854;28;20200;-82
2022/01/09 06:21:29;;;;;;;2.10;0.60;;;4.80;73.20;;;;;;4988358;28;20316;-81
2022/01/09 06:24:02;;;;;;;1.40;0.60;;;4.70;73.40;;;;;;4994725;28;20189;-82
2022/01/09 06:26:32;;;;;;;1.40;0.50;;;4.70;73.80;;;;;;4995487;28;20225;-82
2022/01/09 06:29:05;;;;;;;1.35;0.60;;;4.70;74.70;;;;;;4995628;28;20196;-81
2022/01/09 06:31:46;;;;;;;1.40;0.60;;;4.70;75.50;;;;;;4995052;28;20224;-82
2022/01/09 06:34:14;;;;;;;1.42;0.55;;;4.70;76.10;;;;;;4995535;28;20250;-83
2022/01/09 06:36:51;;;;;;;1.52;0.65;;;4.70;77.10;;;;;;4994548;28;20257;-82
2022/01/09 06:39:21;;;;;;;1.50;0.60;;;4.70;77.80;;;;;;4995360;28;20193;-83
2022/01/09 06:41:51;;;;;;;1.83;0.68;;;4.70;78.40;;;;;;4995034;28;20634;-83
2022/01/09 06:44:19;;;;;;;1.40;0.50;;;4.70;78.50;;;;;;4994956;28;20611;-83
2022/01/09 06:46:47;;;;;;;1.70;0.50;;;4.60;79.00;;;;;;4994863;28;20367;-83
2022/01/09 06:49:16;;;;;;;2.25;0.60;;;4.60;79.60;;;;;;4995073;28;20229;-82
2022/01/09 06:51:43;;;;;;;1.83;0.60;;;4.60;80.30;;;;;;4994555;28;20193;-82
2022/01/09 06:54:16;;;;;;;1.30;0.50;;;4.60;80.70;;;;;;4994928;28;20500;-81
2022/01/09 06:57:03;;;;;;;1.30;0.40;;;4.60;81.20;;;;;;4994305;28;20219;-82
2022/01/09 06:59:34;;;;;;;1.30;0.50;;;4.60;81.30;;;;;;4995244;28;20188;-82
2022/01/09 07:02:07;;;;;;;1.30;0.50;;;4.50;82.20;;;;;;4994334;28;20212;-83
2022/01/09 07:04:38;;;;;;;1.30;0.50;;;4.50;81.80;;;;;;4994116;28;20228;-83
2022/01/09 07:07:11;;;;;;;1.75;0.50;;;4.50;82.10;;;;;;4994788;28;20212;-81
2022/01/09 07:09:38;;;;;;;1.42;0.60;;;4.50;82.10;;;;;;4993959;28;20255;-82
2022/01/09 07:12:13;;;;;;;1.30;0.50;;;4.60;82.50;;;;;;4994832;28;20196;-82
2022/01/09 07:14:43;;;;;;;1.40;0.65;;;4.50;82.60;;;;;;4993975;28;20185;-82
2022/01/09 07:17:11;;;;;;;1.40;0.50;;;4.50;82.90;;;;;;4994603;28;20220;-82
2022/01/09 07:19:38;;;;;;;1.40;0.60;;;4.50;82.90;;;;;;4993770;28;20212;-82
2022/01/09 07:22:06;;;;;;;1.40;0.55;;;4.40;83.00;;;;;;4994339;28;20264;-83
2022/01/09 07:24:36;;;;;;;1.40;0.50;;;4.40;83.30;;;;;;4993875;28;20200;-83
2022/01/09 07:27:08;;;;;;;1.50;0.70;;;4.40;83.60;;;;;;4993747;28;20219;-82
2022/01/09 07:29:36;;;;;;;1.50;0.60;;;4.40;83.50;;;;;;4993735;28;20250;-82
2022/01/09 07:32:07;;;;;;;1.30;0.50;;;4.40;83.80;;;;;;4993547;28;20192;-82
2022/01/09 07:34:34;;;;;;;1.30;0.40;;;4.40;83.70;;;;;;4994250;28;20259;-82
2022/01/09 07:37:07;;;;;;;1.73;0.50;;;4.40;83.60;;;;;;4993245;28;20248;-81
2022/01/09 07:39:39;;;;;;;1.95;0.50;;;4.30;83.80;;;;;;4989315;28;20192;-81
2022/01/09 07:42:12;;;;;;;1.30;0.50;;;4.30;83.90;;;;;;4984985;28;20217;-82
2022/01/09 07:44:45;;;;;;;1.40;0.52;;;4.30;83.70;;;;;;4974297;28;20225;-81
2022/01/09 07:47:18;;;;;;;1.50;0.65;;;4.30;83.70;;;;;;4976798;28;20826;-82
2022/01/09 07:49:50;;;;;;;1.40;0.70;;;4.40;83.30;;;;;;4974161;28;20197;-82
2022/01/09 07:52:22;;;;;;;1.60;0.60;;;4.40;83.80;;;;;;4981968;28;20185;-81
2022/01/09 07:54:56;;;;;;;1.30;0.50;;;4.30;83.50;;;;;;4992241;28;21199;-81
2022/01/09 07:57:28;;;;;;;1.40;0.60;;;4.30;83.50;;;;;;4992221;28;20275;-80
2022/01/09 07:59:56;;;;;;;2.05;0.50;;;4.40;83.60;;;;;;4992341;28;20193;-80
2022/01/09 08:02:47;;;;;;;1.38;0.50;;;4.30;83.30;;;;;;4991147;28;20232;-80
2022/01/09 08:05:19;;;;;;;1.63;0.60;;;4.30;83.90;;;;;;4991696;28;20204;-80
2022/01/09 08:07:50;;;;;;;1.40;0.60;;;4.30;84.00;;;;;;4990951;28;20314;-78
2022/01/09 08:10:18;;;;;;;1.60;0.70;;;4.40;83.90;;;;;;4973480;28;20224;-80
2022/01/09 08:12:59;;;;;;;1.30;0.50;;;4.40;83.60;;;;;;4990777;28;20190;-81
2022/01/09 08:15:29;;;;;;;1.30;0.50;;;4.40;83.80;;;;;;4973455;28;20256;-80
2022/01/09 08:17:59;;;;;;;4.63;2.53;;;4.40;83.90;;;;;;4991517;28;20232;-81
2022/01/09 08:20:32;;;;;;;2.35;1.17;;;4.40;84.00;;;;;;4991378;28;20228;-80
2022/01/09 08:23:12;;;;;;;1.70;0.60;;;4.40;84.40;;;;;;4973512;28;20205;-81
2022/01/09 08:25:43;;;;;;;1.70;0.70;;;4.40;84.50;;;;;;4973030;28;20640;-81
2022/01/09 08:28:15;;;;;;;1.50;0.52;;;4.40;84.10;;;;;;4987568;28;20192;-81
2022/01/09 08:30:55;;;;;;;1.50;0.60;;;4.40;83.80;;;;;;4991117;28;20745;-81
2022/01/09 08:33:24;;;;;;;1.90;0.85;;;4.40;84.10;;;;;;4976714;28;20201;-79
2022/01/09 08:35:57;;;;;;;1.75;0.73;;;4.40;83.90;;;;;;4975510;28;20193;-79
2022/01/09 08:38:26;;;;;;;1.40;0.50;;;4.40;84.20;;;;;;4973177;28;20684;-79
2022/01/09 08:40:56;;;;;;;1.70;0.63;;;4.40;84.10;;;;;;4976270;28;20233;-79
2022/01/09 08:43:23;;;;;;;1.77;0.80;;;4.50;84.60;;;;;;4973214;28;20198;-79
2022/01/09 08:45:53;;;;;;;4.00;0.80;;;4.50;84.50;;;;;;4976970;28;20201;-79
2022/01/09 08:48:28;;;;;;;1.30;0.57;;;4.50;84.40;;;;;;4973109;28;20193;-79
2022/01/09 08:51:03;;;;;;;1.70;0.60;;;4.50;84.40;;;;;;4973088;28;20200;-79
2022/01/09 08:53:39;;;;;;;1.75;0.88;;;4.50;84.40;;;;;;4977067;28;20196;-80
2022/01/09 08:56:11;;;;;;;1.70;0.57;;;4.60;84.10;;;;;;4974134;28;20189;-79
2022/01/09 08:58:39;;;;;;;1.50;0.50;;;4.50;83.50;;;;;;4972984;28;20264;-78
2022/01/09 09:01:09;;;;;;;1.80;0.80;;;4.50;83.30;;;;;;4973340;28;20213;-78
2022/01/09 09:03:41;;;;;;;1.40;0.50;;;4.50;83.30;;;;;;4977922;28;20190;-79
2022/01/09 09:06:17;;;;;;;1.73;0.65;;;4.60;83.20;;;;;;4990541;28;20192;-79
2022/01/09 09:08:54;;;;;;;1.58;0.60;;;4.60;83.30;;;;;;4991328;28;20594;-78
2022/01/09 09:11:25;;;;;;;2.03;1.33;;;4.60;82.90;;;;;;4978089;28;20684;-78
2022/01/09 09:14:01;;;;;;;2.97;1.75;;;4.50;83.00;;;;;;4973608;28;20661;-78
2022/01/09 09:16:32;;;;;;;2.08;0.63;;;4.60;83.30;;;;;;4987578;28;20243;-79
2022/01/09 09:19:18;;;;;;;1.73;0.80;;;4.60;83.30;;;;;;4971345;28;20238;-77
2022/01/09 09:21:47;;;;;;;1.60;0.70;;;4.60;83.20;;;;;;4972175;28;20361;-78
2022/01/09 09:24:20;;;;;;;1.40;0.80;;;4.60;83.10;;;;;;4981701;28;20287;-78
2022/01/09 09:26:51;;;;;;;1.55;0.60;;;4.60;83.10;;;;;;4988754;28;20732;-78
2022/01/09 09:29:21;;;;;;;1.50;0.60;;;4.60;83.40;;;;;;4989349;28;20537;-78
2022/01/09 09:31:51;;;;;;;1.50;0.50;;;4.60;83.30;;;;;;4976629;28;20200;-78
2022/01/09 09:34:27;;;;;;;1.60;0.65;;;4.70;83.40;;;;;;4987844;28;20197;-78
2022/01/09 09:37:07;;;;;;;1.60;0.60;;;4.80;83.30;;;;;;4972846;28;20540;-78
2022/01/09 09:39:40;;;;;;;1.42;0.60;;;4.90;83.30;;;;;;4971181;28;20239;-78
2022/01/09 09:42:11;;;;;;;2.72;2.38;;;5.00;82.40;;;;;;4972389;28;20194;-78
2022/01/09 09:44:45;;;;;;;1.98;1.00;;;5.00;81.90;;;;;;4970944;28;20189;-80
2022/01/09 09:47:31;;;;;;;5.78;4.22;;;5.00;82.00;;;;;;4973594;28;20382;-79
2022/01/09 09:50:06;;;;;;;5.70;4.57;;;5.00;81.80;;;;;;4973489;28;20197;-78
2022/01/09 09:52:35;;;;;;;2.63;2.03;;;5.10;82.00;;;;;;4976101;28;20197;-79
2022/01/09 09:55:04;;;;;;;3.35;1.70;;;5.30;82.10;;;;;;4991412;28;20715;-79
2022/01/09 09:57:31;;;;;;;1.95;1.02;;;5.40;81.10;;;;;;4977900;28;20217;-79
2022/01/09 10:00:13;;;;;;;7.35;4.07;;;5.60;81.10;;;;;;4978463;28;20726;-78
2022/01/09 10:02:45;;;;;;;2.60;1.48;;;5.80;80.40;;;;;;4974782;28;20710;-78
2022/01/09 10:05:14;;;;;;;3.05;1.60;;;6.10;80.90;;;;;;4982951;28;20204;-77
2022/01/09 10:07:42;;;;;;;4.70;2.55;;;6.80;79.50;;;;;;4974390;28;20572;-78
2022/01/09 10:10:11;;;;;;;3.50;1.63;;;7.50;77.40;;;;;;4975883;28;20649;-78
2022/01/09 10:12:40;;;;;;;2.25;1.02;;;8.10;73.20;;;;;;4992663;28;20560;-78
2022/01/09 10:15:11;;;;;;;1.50;0.90;;;8.30;68.40;;;;;;4991849;28;20259;-79
2022/01/09 10:17:45;;;;;;;1.90;0.80;;;8.40;66.60;;;;;;4974411;28;20248;-79
2022/01/09 10:20:15;;;;;;;1.95;0.80;;;8.30;65.70;;;;;;4989965;28;20244;-79
2022/01/09 10:22:46;;;;;;;1.60;0.85;;;8.20;63.80;;;;;;4974398;28;20256;-79
2022/01/09 10:25:36;;;;;;;8.10;5.90;;;8.00;65.00;;;;;;4991068;28;20320;-80
2022/01/09 10:28:08;;;;;;;2.10;0.90;;;7.70;64.30;;;;;;4992424;28;20203;-79
2022/01/09 10:30:41;;;;;;;1.50;0.70;;;7.50;64.50;;;;;;4992346;28;20220;-80
2022/01/09 10:33:20;;;;;;;3.80;1.60;;;7.30;64.30;;;;;;4974583;28;20725;-81
2022/01/09 10:36:00;;;;;;;6.70;3.35;;;7.10;65.20;;;;;;4976648;28;20193;-80
2022/01/09 10:38:30;;;;;;;2.30;1.33;;;7.20;67.10;;;;;;4989985;28;20250;-81
2022/01/09 10:41:05;;;;;;;2.63;1.30;;;7.30;67.40;;;;;;4992766;28;20551;-81
2022/01/09 10:43:36;;;;;;;5.05;2.45;;;7.40;66.70;;;;;;4987781;28;20536;-80
2022/01/09 10:46:03;;;;;;;6.13;4.03;;;7.80;67.40;;;;;;4991835;28;20259;-81
2022/01/09 10:48:38;;;;;;;2.90;1.40;;;8.00;64.30;;;;;;4991171;28;20200;-82
2022/01/09 10:51:10;;;;;;;4.45;2.63;;;8.10;63.20;;;;;;4975027;28;20235;-82
2022/01/09 10:53:46;;;;;;;2.80;0.90;;;8.40;64.50;;;;;;4973963;28;20212;-82
2022/01/09 10:56:16;;;;;;;3.17;0.90;;;8.80;63.40;;;;;;4977532;28;20192;-80
2022/01/09 10:58:45;;;;;;;3.75;1.88;;;9.20;61.50;;;;;;4992399;28;20224;-80
2022/01/09 11:01:25;;;;;;;10.93;5.80;;;9.50;59.80;;;;;;4990370;28;20193;-79
2022/01/09 11:03:59;;;;;;;3.10;0.98;;;9.80;60.30;;;;;;4973928;28;20667;-80
2022/01/09 11:06:31;;;;;;;2.05;1.10;;;10.30;57.70;;;;;;4980141;28;20184;-80
2022/01/09 11:09:02;;;;;;;3.65;1.23;;;10.80;55.50;;;;;;4991651;28;20207;-80
2022/01/09 11:11:37;;;;;;;14.68;10.30;;;11.30;55.50;;;;;;4991525;28;20611;-80
2022/01/09 11:14:08;;;;;;;3.92;2.70;;;12.00;55.50;;;;;;4973454;28;20193;-81
2022/01/09 11:16:42;;;;;;;5.13;3.83;;;12.00;52.20;;;;;;4981976;28;20518;-80
2022/01/09 11:19:13;;;;;;;4.53;2.45;;;11.40;51.30;;;;;;4974720;28;20307;-80
2022/01/09 11:21:43;;;;;;;4.90;2.67;;;10.60;52.30;;;;;;4973262;28;20251;-78
2022/01/09 11:24:36;;;;;;;4.50;2.13;;;9.90;54.20;;;;;;4974798;28;20202;-79
2022/01/09 11:27:22;;;;;;;3.78;0.93;;;9.40;56.10;;;;;;4991350;28;20196;-78
2022/01/09 11:30:07;;;;;;;2.35;1.17;;;9.30;58.00;;;;;;4992036;28;20240;-77
2022/01/09 11:32:45;;;;;;;5.50;3.55;;;9.60;59.20;;;;;;4990465;28;20631;-77
2022/01/09 11:35:26;;;;;;;3.55;2.63;;;9.70;57.80;;;;;;4991449;28;20599;-76
2022/01/09 11:38:11;;;;;;;6.90;4.00;;;9.60;58.00;;;;;;4976630;28;20212;-77
2022/01/09 11:40:39;;;;;;;3.92;3.13;;;9.40;58.40;;;;;;4973479;28;20202;-78
2022/01/09 11:43:11;;;;;;;6.88;4.22;;;9.20;58.90;;;;;;4975140;28;20674;-78
2022/01/09 11:45:47;;;;;;;3.85;2.45;;;9.10;59.10;;;;;;4985060;28;20292;-78
2022/01/09 11:48:17;;;;;;;2.55;1.50;;;9.20;60.30;;;;;;4973385;28;20201;-78
2022/01/09 11:51:14;;;;;;;2.70;1.00;;;9.50;59.10;;;;;;4974232;28;20186;-77
2022/01/09 11:54:10;;;;;;;2.25;0.95;;;9.80;59.20;;;;;;4968398;28;20248;-78
2022/01/09 11:56:55;;;;;;;3.10;1.30;;;10.60;58.00;;;;;;4990157;28;20189;-78
2022/01/09 11:59:26;;;;;;;2.30;1.33;;;11.70;57.50;;;;;;4991016;28;20224;-78
2022/01/09 12:01:56;;;;;;;2.75;1.10;;;12.50;54.00;;;;;;4990648;28;20710;-77
2022/01/09 12:04:54;;;;;;;2.38;1.17;;;12.60;50.00;;;;;;4991500;28;20283;-77
2022/01/09 12:08:05;;;;;;;3.13;1.17;;;12.50;50.80;;;;;;4982697;28;20193;-79
2022/01/09 12:10:53;;;;;;;4.90;1.25;;;12.50;49.40;;;;;;4973448;28;20196;-78
2022/01/09 12:13:50;;;;;;;3.50;1.60;;;12.70;50.10;;;;;;4988407;28;20189;-79
2022/01/09 12:16:56;;;;;;;5.90;2.65;;;13.80;49.10;;;;;;4973124;28;20201;-79
2022/01/09 12:20:04;;;;;;;3.33;1.63;;;14.60;47.40;;;;;;4981139;28;20680;-79
2022/01/09 12:23:07;;;;;;;6.93;1.80;;;15.60;45.30;;;;;;4989464;28;20528;-79
2022/01/09 12:25:55;;;;;;;9.73;2.80;;;16.30;42.10;;;;;;4968229;28;20824;-79
2022/01/09 12:28:38;;;;;;;3.60;1.57;;;16.30;41.00;;;;;;4972149;28;20958;-78
2022/01/09 12:31:07;;;;;;;6.17;1.53;;;16.20;39.40;;;;;;4972771;28;20445;-79
2022/01/09 12:33:49;;;;;;;3.50;1.50;;;15.60;39.40;;;;;;4974094;28;20463;-80
2022/01/09 12:36:33;;;;;;;3.00;1.57;;;15.00;39.60;;;;;;4974851;28;20444;-79
2022/01/09 12:39:08;;;;;;;4.13;1.00;;;14.30;40.10;;;;;;4981030;28;20487;-79
2022/01/09 12:41:42;;;;;;;3.07;1.10;;;13.70;40.10;;;;;;4989347;28;20444;-80
2022/01/09 12:44:11;;;;;;;5.30;1.17;;;13.20;40.80;;;;;;4983084;28;20986;-80
2022/01/09 12:46:41;;;;;;;4.80;1.50;;;12.50;40.70;;;;;;4971691;28;20446;-79
2022/01/09 12:49:12;;;;;;;3.10;1.20;;;12.00;41.50;;;;;;4972854;28;20277;-80
2022/01/09 12:51:47;;;;;;;4.43;1.42;;;11.40;42.60;;;;;;4973070;28;20308;-80
2022/01/09 12:54:15;;;;;;;3.45;1.20;;;11.00;44.10;;;;;;4975199;28;20193;-80
2022/01/09 12:56:43;;;;;;;3.75;1.30;;;10.60;45.10;;;;;;4972797;28;20189;-80
2022/01/09 12:59:12;;;;;;;4.00;1.25;;;10.30;45.20;;;;;;4974084;28;20276;-80
2022/01/09 13:01:41;;;;;;;5.05;2.30;;;10.00;46.40;;;;;;4982405;28;20200;-79
2022/01/09 13:04:13;;;;;;;3.08;1.42;;;9.60;47.50;;;;;;4976245;28;20276;-80
2022/01/09 13:06:42;;;;;;;8.88;2.40;;;9.40;48.60;;;;;;4986263;28;20714;-80
2022/01/09 13:09:15;;;;;;;4.55;2.45;;;9.20;48.80;;;;;;4977012;28;20193;-79
2022/01/09 13:11:44;;;;;;;5.30;1.42;;;9.00;49.40;;;;;;4972853;28;20244;-80
2022/01/09 13:14:11;;;;;;;5.93;2.85;;;8.70;49.60;;;;;;4976214;28;20190;-80
2022/01/09 13:16:39;;;;;;;4.07;2.75;;;8.40;50.20;;;;;;4988084;28;20259;-80
2022/01/09 13:19:11;;;;;;;4.13;1.58;;;8.20;51.20;;;;;;4991171;28;20305;-80
2022/01/09 13:21:40;;;;;;;3.70;1.35;;;8.00;51.40;;;;;;4990491;28;20253;-81
2022/01/09 13:24:12;;;;;;;8.45;3.25;;;7.90;52.00;;;;;;4992290;28;20193;-81
2022/01/09 13:26:42;;;;;;;6.30;3.72;;;7.80;52.60;;;;;;4994947;28;20224;-81
2022/01/09 13:29:13;;;;;;;25.65;5.22;;;7.90;53.10;;;;;;4994653;28;20658;-80